Time;durP1;ratioP1;P1;durP2;ratioP2;P2;SDS_P1;SDS_P2;PMS_P1;PMS_P2;Temp;Humidity;BMP_temperature;BMP_pressure;BME280_temperature;BME280_humidity;BME280_pressure;Samples;Min_cycle;Max_cycle;Signal;HPM_P1;HPM_P2
2023/06/05 00:02:16;;;;;;;6.55;3.65;;;;;;;;;;5103852;27;20368;-75
2023/06/05 00:04:43;;;;;;;5.38;3.60;;;;;;;;;;5105049;27;20057;-75
2023/06/05 00:07:09;;;;;;;7.68;4.15;;;;;;;;;;5123701;27;20051;-75
2023/06/05 00:09:35;;;;;;;6.95;4.00;;;;;;;;;;5107628;27;20054;-75
2023/06/05 00:12:02;;;;;;;6.95;4.22;;;;;;;;;;5104673;27;20376;-75
2023/06/05 00:14:28;;;;;;;6.30;3.70;;;;;;;;;;5104492;27;20589;-75
2023/06/05 00:16:56;;;;;;;8.63;4.40;;;;;;;;;;5106475;28;20491;-75
2023/06/05 00:19:22;;;;;;;9.05;5.07;;;;;;;;;;5103251;27;20052;-75
2023/06/05 00:21:50;;;;;;;8.15;4.40;;;;;;;;;;5104800;27;20044;-75
2023/06/05 00:24:16;;;;;;;7.22;3.78;;;;;;;;;;5140166;27;20046;-75
2023/06/05 00:26:43;;;;;;;6.78;3.78;;;;;;;;;;5105136;27;20127;-75
2023/06/05 00:29:09;;;;;;;6.38;3.67;;;;;;;;;;5104570;27;20040;-75
2023/06/05 00:31:35;;;;;;;7.03;3.63;;;;;;;;;;5093844;27;20040;-75
2023/06/05 00:34:01;;;;;;;6.22;3.08;;;;;;;;;;5095025;27;20082;-75
2023/06/05 00:36:28;;;;;;;5.25;3.00;;;;;;;;;;5094955;27;20130;-75
2023/06/05 00:38:54;;;;;;;5.50;3.10;;;;;;;;;;5104268;27;20054;-75
2023/06/05 00:41:21;;;;;;;5.20;3.15;;;;;;;;;;5127489;27;20059;-75
2023/06/05 00:43:47;;;;;;;7.03;3.50;;;;;;;;;;5093020;27;20369;-75
2023/06/05 00:46:13;;;;;;;5.20;3.20;;;;;;;;;;5125638;27;20062;-75
2023/06/05 00:48:41;;;;;;;4.63;2.60;;;;;;;;;;5095539;27;20487;-75
2023/06/05 00:51:10;;;;;;;5.43;2.38;;;;;;;;;;5128396;27;20044;-75
2023/06/05 00:53:36;;;;;;;4.28;2.53;;;;;;;;;;5089683;27;20457;-75
2023/06/05 00:56:03;;;;;;;5.18;2.53;;;;;;;;;;5093226;27;20495;-75
2023/06/05 00:58:29;;;;;;;5.47;2.47;;;;;;;;;;5123641;27;20071;-75
2023/06/05 01:00:56;;;;;;;5.15;2.55;;;;;;;;;;5089716;27;20494;-75
2023/06/05 01:03:23;;;;;;;3.78;2.28;;;;;;;;;;5122702;27;20371;-75
2023/06/05 01:05:49;;;;;;;5.32;2.35;;;;;;;;;;5110168;27;20079;-75
2023/06/05 01:08:16;;;;;;;5.70;2.40;;;;;;;;;;5093403;27;20036;-75
2023/06/05 01:10:44;;;;;;;6.63;2.28;;;;;;;;;;5100045;27;20055;-76
2023/06/05 01:13:17;;;;;;;5.25;2.67;;;;;;;;;;5100774;27;20062;-75
2023/06/05 01:15:44;;;;;;;3.92;2.50;;;;;;;;;;5095272;27;20055;-75
2023/06/05 01:18:10;;;;;;;6.05;3.33;;;;;;;;;;5132044;27;20395;-75
2023/06/05 01:20:37;;;;;;;3.78;2.40;;;;;;;;;;5132140;27;20102;-75
2023/06/05 01:23:04;;;;;;;5.38;2.38;;;;;;;;;;5095129;27;20667;-75
2023/06/05 01:25:32;;;;;;;4.93;2.38;;;;;;;;;;5109679;27;20083;-75
2023/06/05 01:28:03;;;;;;;5.53;2.40;;;;;;;;;;5083325;27;20513;-75
2023/06/05 01:30:32;;;;;;;4.28;2.10;;;;;;;;;;5125152;27;20051;-75
2023/06/05 01:33:06;;;;;;;5.35;2.60;;;;;;;;;;5110231;27;20036;-75
2023/06/05 01:35:33;;;;;;;3.88;1.98;;;;;;;;;;5127894;27;20202;-75
2023/06/05 01:38:02;;;;;;;3.80;2.20;;;;;;;;;;5106720;27;20557;-75
2023/06/05 01:40:30;;;;;;;5.72;2.55;;;;;;;;;;5109998;27;20047;-75
2023/06/05 01:42:57;;;;;;;4.68;2.40;;;;;;;;;;5116000;27;20041;-75
2023/06/05 01:45:24;;;;;;;4.78;2.88;;;;;;;;;;5131340;27;20051;-75
2023/06/05 01:47:50;;;;;;;5.95;2.63;;;;;;;;;;5099824;27;20051;-75
2023/06/05 01:50:18;;;;;;;4.57;2.33;;;;;;;;;;5095286;27;20053;-75
2023/06/05 01:52:46;;;;;;;4.72;2.30;;;;;;;;;;5098707;27;20133;-75
2023/06/05 01:55:20;;;;;;;5.10;3.03;;;;;;;;;;5133157;27;20051;-75
2023/06/05 01:57:46;;;;;;;;;;;;;;;;;;5103889;27;20406;-75
2023/06/05 02:00:15;;;;;;;5.57;2.60;;;;;;;;;;5097981;27;20310;-75
2023/06/05 02:02:42;;;;;;;5.90;2.95;;;;;;;;;;5102000;27;20089;-75
2023/06/05 02:05:10;;;;;;;5.80;2.70;;;;;;;;;;5099332;27;20148;-75
2023/06/05 02:07:39;;;;;;;7.15;3.00;;;;;;;;;;5105760;27;20050;-75
2023/06/05 02:10:06;;;;;;;4.88;3.33;;;;;;;;;;5135684;27;20141;-75
2023/06/05 02:12:32;;;;;;;7.82;4.15;;;;;;;;;;5134184;27;20157;-75
2023/06/05 02:15:00;;;;;;;5.75;3.75;;;;;;;;;;5103192;27;20051;-75
2023/06/05 02:17:26;;;;;;;6.55;3.88;;;;;;;;;;5117034;27;20098;-75
2023/06/05 02:19:52;;;;;;;6.90;4.15;;;;;;;;;;5118701;27;20514;-75
2023/06/05 02:22:19;;;;;;;8.90;3.97;;;;;;;;;;5102875;27;20122;-75
2023/06/05 02:24:45;;;;;;;8.00;3.75;;;;;;;;;;5104030;27;20043;-75
2023/06/05 02:27:12;;;;;;;6.07;3.40;;;;;;;;;;5133628;27;20078;-75
2023/06/05 02:29:38;;;;;;;6.75;4.35;;;;;;;;;;5086755;27;20674;-75
2023/06/05 02:32:06;;;;;;;6.57;4.35;;;;;;;;;;5085602;28;20044;-75
2023/06/05 02:34:32;;;;;;;7.75;4.95;;;;;;;;;;5093144;27;20499;-75
2023/06/05 02:36:59;;;;;;;6.72;4.82;;;;;;;;;;5092029;27;21410;-75
2023/06/05 02:39:25;;;;;;;7.38;4.93;;;;;;;;;;5121084;27;20064;-75
2023/06/05 02:41:52;;;;;;;8.18;5.43;;;;;;;;;;5088904;28;20360;-75
2023/06/05 02:44:18;;;;;;;7.63;5.43;;;;;;;;;;5092209;27;20060;-75
2023/06/05 02:46:44;;;;;;;7.82;5.15;;;;;;;;;;5090021;28;20039;-75
2023/06/05 02:49:10;;;;;;;7.57;4.38;;;;;;;;;;5092000;28;20066;-75
2023/06/05 02:51:37;;;;;;;9.45;4.78;;;;;;;;;;5090121;28;20182;-75
2023/06/05 02:54:03;;;;;;;6.85;4.40;;;;;;;;;;5088298;28;20063;-75
2023/06/05 02:56:29;;;;;;;6.90;4.25;;;;;;;;;;5129122;27;20048;-75
2023/06/05 02:58:56;;;;;;;7.63;4.03;;;;;;;;;;5087169;28;20036;-75
2023/06/05 03:01:25;;;;;;;12.88;5.40;;;;;;;;;;5093876;28;20403;-75
2023/06/05 03:03:53;;;;;;;8.35;4.82;;;;;;;;;;5088389;28;20044;-75
2023/06/05 03:06:19;;;;;;;8.65;4.70;;;;;;;;;;5089566;28;20152;-75
2023/06/05 03:08:45;;;;;;;8.63;5.68;;;;;;;;;;5089268;28;20036;-75
2023/06/05 03:11:11;;;;;;;8.48;5.55;;;;;;;;;;5121083;27;20035;-75
2023/06/05 03:13:37;;;;;;;9.73;5.72;;;;;;;;;;5089295;28;20353;-75
2023/06/05 03:16:04;;;;;;;7.72;5.47;;;;;;;;;;5091835;28;20131;-75
2023/06/05 03:18:30;;;;;;;9.27;5.63;;;;;;;;;;5098219;28;20361;-75
2023/06/05 03:20:57;;;;;;;8.43;5.88;;;;;;;;;;5094772;28;20063;-75
2023/06/05 03:23:24;;;;;;;10.70;6.30;;;;;;;;;;5090551;28;20040;-75
2023/06/05 03:25:51;;;;;;;8.73;5.93;;;;;;;;;;5075554;28;20070;-75
2023/06/05 03:28:17;;;;;;;9.32;5.85;;;;;;;;;;5098502;27;20049;-75
2023/06/05 03:30:44;;;;;;;9.80;5.97;;;;;;;;;;5112521;27;20051;-75
2023/06/05 03:33:10;;;;;;;9.68;5.35;;;;;;;;;;5094209;27;20035;-75
2023/06/05 03:35:36;;;;;;;7.22;4.45;;;;;;;;;;5095314;27;20089;-75
2023/06/05 03:38:03;;;;;;;7.47;4.18;;;;;;;;;;5091251;27;20522;-75
2023/06/05 03:40:30;;;;;;;9.60;5.35;;;;;;;;;;5095772;27;20051;-75
2023/06/05 03:42:56;;;;;;;10.35;5.00;;;;;;;;;;5090953;27;20044;-75
2023/06/05 03:45:22;;;;;;;7.05;4.22;;;;;;;;;;5089799;27;20401;-75
2023/06/05 03:47:48;;;;;;;5.57;3.15;;;;;;;;;;5099093;27;20039;-75
2023/06/05 03:50:16;;;;;;;6.30;3.70;;;;;;;;;;5109557;27;20047;-75
2023/06/05 03:52:42;;;;;;;5.20;2.80;;;;;;;;;;5115377;27;20042;-75
2023/06/05 03:55:09;;;;;;;5.72;3.17;;;;;;;;;;5104255;27;20058;-75
2023/06/05 03:57:37;;;;;;;6.13;2.70;;;;;;;;;;5105899;27;20039;-75
2023/06/05 04:00:09;;;;;;;5.57;2.67;;;;;;;;;;5091643;27;20050;-75
2023/06/05 04:02:36;;;;;;;7.47;3.55;;;;;;;;;;5106045;27;20047;-75
2023/06/05 04:05:04;;;;;;;4.30;2.65;;;;;;;;;;5126960;27;20096;-75
2023/06/05 04:07:30;;;;;;;6.72;2.75;;;;;;;;;;5107360;27;20039;-75
2023/06/05 04:09:56;;;;;;;5.00;2.63;;;;;;;;;;5127963;27;20122;-75
2023/06/05 04:12:22;;;;;;;4.45;2.55;;;;;;;;;;5107206;27;20048;-75
2023/06/05 04:14:49;;;;;;;6.85;2.72;;;;;;;;;;5108643;27;20782;-75
2023/06/05 04:17:15;;;;;;;5.95;3.45;;;;;;;;;;5108490;27;20050;-75
2023/06/05 04:19:41;;;;;;;4.38;2.28;;;;;;;;;;5108307;27;20043;-75
2023/06/05 04:22:08;;;;;;;4.47;2.13;;;;;;;;;;5091029;27;20390;-75
2023/06/05 04:24:34;;;;;;;5.00;2.00;;;;;;;;;;5123981;27;20051;-75
2023/06/05 04:27:00;;;;;;;5.05;2.47;;;;;;;;;;5105844;27;20121;-75
2023/06/05 04:29:27;;;;;;;3.83;2.17;;;;;;;;;;5096561;27;20055;-75
2023/06/05 04:31:53;;;;;;;5.03;2.45;;;;;;;;;;5095179;27;20442;-75
2023/06/05 04:34:20;;;;;;;4.85;2.35;;;;;;;;;;5112855;27;20089;-75
2023/06/05 04:36:49;;;;;;;4.25;2.33;;;;;;;;;;5113246;27;20040;-75
2023/06/05 04:39:17;;;;;;;4.50;2.50;;;;;;;;;;5093251;27;20071;-75
2023/06/05 04:41:44;;;;;;;4.15;2.47;;;;;;;;;;5093970;27;20082;-75
2023/06/05 04:44:13;;;;;;;4.50;2.40;;;;;;;;;;5110961;27;20668;-75
2023/06/05 04:46:42;;;;;;;4.13;2.45;;;;;;;;;;5135591;27;20138;-75
2023/06/05 04:49:10;;;;;;;6.65;2.50;;;;;;;;;;5103705;27;20054;-75
2023/06/05 04:51:36;;;;;;;4.80;2.88;;;;;;;;;;5102934;27;20054;-75
2023/06/05 04:54:03;;;;;;;5.47;2.90;;;;;;;;;;5132816;27;20067;-75
2023/06/05 04:56:32;;;;;;;4.70;2.40;;;;;;;;;;5097010;27;20049;-75
2023/06/05 04:58:59;;;;;;;5.13;2.75;;;;;;;;;;5079253;27;20487;-75
2023/06/05 05:01:27;;;;;;;6.18;3.38;;;;;;;;;;5097672;27;20039;-75
2023/06/05 05:03:54;;;;;;;5.43;3.38;;;;;;;;;;5114075;27;20466;-71
2023/06/05 05:06:20;;;;;;;4.43;2.72;;;;;;;;;;5126114;27;20062;-75
2023/06/05 05:08:48;;;;;;;5.65;2.63;;;;;;;;;;5081592;27;20511;-75
2023/06/05 05:11:14;;;;;;;5.88;2.58;;;;;;;;;;5093803;27;20050;-75
2023/06/05 05:13:41;;;;;;;4.93;2.53;;;;;;;;;;5104934;27;20047;-75
2023/06/05 05:16:09;;;;;;;3.78;2.33;;;;;;;;;;5107635;27;20039;-75
2023/06/05 05:18:36;;;;;;;4.32;2.40;;;;;;;;;;5119928;27;20170;-75
2023/06/05 05:21:04;;;;;;;4.03;1.63;;;;;;;;;;5102985;27;20496;-75
2023/06/05 05:23:31;;;;;;;4.25;1.90;;;;;;;;;;5117463;27;20619;-75
2023/06/05 05:25:57;;;;;;;3.60;2.15;;;;;;;;;;5098416;27;20055;-75
2023/06/05 05:28:23;;;;;;;5.05;2.28;;;;;;;;;;5099494;27;20054;-75
2023/06/05 05:30:50;;;;;;;5.18;2.17;;;;;;;;;;5102073;27;20050;-75
2023/06/05 05:33:16;;;;;;;4.13;2.35;;;;;;;;;;5104155;27;20497;-75
2023/06/05 05:35:43;;;;;;;4.25;2.10;;;;;;;;;;5103905;27;20051;-74
2023/06/05 05:38:09;;;;;;;5.55;2.50;;;;;;;;;;5100955;27;20113;-71
2023/06/05 05:40:35;;;;;;;5.28;2.90;;;;;;;;;;5101749;27;20087;-71
2023/06/05 05:43:01;;;;;;;4.10;2.35;;;;;;;;;;5099379;27;20055;-69
2023/06/05 05:45:27;;;;;;;5.47;2.42;;;;;;;;;;5102213;27;20067;-70
2023/06/05 05:47:53;;;;;;;4.15;2.30;;;;;;;;;;5102869;27;20726;-74
2023/06/05 05:50:20;;;;;;;5.25;2.78;;;;;;;;;;5097601;27;20083;-72
2023/06/05 05:52:47;;;;;;;7.03;2.70;;;;;;;;;;5134245;27;20050;-74
2023/06/05 05:55:13;;;;;;;6.07;2.30;;;;;;;;;;5124152;27;20485;-75
2023/06/05 05:57:40;;;;;;;4.80;2.40;;;;;;;;;;5098777;27;20054;-74
2023/06/05 06:00:12;;;;;;;5.13;2.65;;;;;;;;;;5099277;27;20051;-75
2023/06/05 06:02:39;;;;;;;5.68;3.38;;;;;;;;;;5096295;27;20777;-75
2023/06/05 06:05:05;;;;;;;5.03;2.70;;;;;;;;;;5099959;27;20478;-75
2023/06/05 06:07:32;;;;;;;6.38;2.95;;;;;;;;;;5102299;27;20036;-75
2023/06/05 06:09:59;;;;;;;6.82;2.70;;;;;;;;;;5095299;27;20147;-75
2023/06/05 06:12:27;;;;;;;5.05;2.88;;;;;;;;;;5101846;27;20047;-75
2023/06/05 06:14:53;;;;;;;4.78;2.55;;;;;;;;;;5100842;27;20093;-75
2023/06/05 06:17:19;;;;;;;6.60;2.88;;;;;;;;;;5084604;27;20889;-75
2023/06/05 06:19:48;;;;;;;6.05;2.58;;;;;;;;;;5092549;27;20042;-74
2023/06/05 06:22:15;;;;;;;5.20;3.17;;;;;;;;;;5100490;27;20123;-74
2023/06/05 06:24:42;;;;;;;5.25;2.88;;;;;;;;;;5091974;27;20525;-75
2023/06/05 06:27:10;;;;;;;6.32;3.38;;;;;;;;;;5104211;27;20385;-75
2023/06/05 06:29:38;;;;;;;8.13;3.38;;;;;;;;;;5103409;27;20043;-74
2023/06/05 06:32:05;;;;;;;5.95;3.25;;;;;;;;;;5098818;27;20455;-74
2023/06/05 06:34:33;;;;;;;4.72;2.92;;;;;;;;;;5134446;27;20403;-75
2023/06/05 06:36:59;;;;;;;6.60;3.47;;;;;;;;;;5106744;27;20055;-75
2023/06/05 06:39:25;;;;;;;5.43;3.20;;;;;;;;;;5104521;27;20039;-75
2023/06/05 06:41:53;;;;;;;6.45;3.00;;;;;;;;;;5105768;27;20055;-77
2023/06/05 06:44:19;;;;;;;7.13;3.40;;;;;;;;;;5106990;27;20246;-75
2023/06/05 06:46:45;;;;;;;5.85;3.65;;;;;;;;;;5137533;27;20364;-71
2023/06/05 06:49:12;;;;;;;5.45;3.03;;;;;;;;;;5103588;27;20051;-74
2023/06/05 06:51:38;;;;;;;5.18;2.70;;;;;;;;;;5104456;27;20047;-75
2023/06/05 06:54:04;;;;;;;6.68;2.92;;;;;;;;;;5134529;27;20047;-75
2023/06/05 06:56:30;;;;;;;4.93;3.20;;;;;;;;;;5100270;27;20442;-74
2023/06/05 06:58:57;;;;;;;6.55;3.35;;;;;;;;;;5108769;27;20126;-75
2023/06/05 07:01:24;;;;;;;6.75;3.78;;;;;;;;;;5137322;27;20043;-74
2023/06/05 07:03:51;;;;;;;6.35;3.28;;;;;;;;;;5097941;27;20050;-75
2023/06/05 07:06:17;;;;;;;7.03;3.47;;;;;;;;;;5103000;27;20482;-76
2023/06/05 07:08:44;;;;;;;7.72;2.97;;;;;;;;;;5107691;27;20038;-77
2023/06/05 07:11:11;;;;;;;6.72;3.50;;;;;;;;;;5103218;27;20044;-78
2023/06/05 07:13:37;;;;;;;6.53;3.10;;;;;;;;;;5105263;27;20095;-78
2023/06/05 07:16:03;;;;;;;6.18;2.78;;;;;;;;;;5100063;27;20047;-78
2023/06/05 07:18:29;;;;;;;5.55;2.88;;;;;;;;;;5118873;27;20130;-78
2023/06/05 07:20:55;;;;;;;5.32;2.60;;;;;;;;;;5101699;27;20584;-78
2023/06/05 07:23:22;;;;;;;7.10;2.33;;;;;;;;;;5099936;27;20160;-78
2023/06/05 07:25:48;;;;;;;5.00;2.55;;;;;;;;;;5117594;27;20039;-78
2023/06/05 07:28:15;;;;;;;5.93;2.95;;;;;;;;;;5101558;27;20067;-78
2023/06/05 07:30:43;;;;;;;4.03;2.55;;;;;;;;;;5104209;27;20047;-78
2023/06/05 07:33:09;;;;;;;5.80;2.65;;;;;;;;;;5101028;27;20509;-77
2023/06/05 07:35:35;;;;;;;5.15;2.80;;;;;;;;;;5117059;27;20059;-78
2023/06/05 07:38:02;;;;;;;5.95;2.92;;;;;;;;;;5107791;27;20126;-78
2023/06/05 07:40:28;;;;;;;6.50;3.15;;;;;;;;;;5103687;27;20047;-78
2023/06/05 07:42:54;;;;;;;6.45;2.95;;;;;;;;;;5104566;27;20046;-78
2023/06/05 07:45:20;;;;;;;5.88;2.95;;;;;;;;;;5116157;27;20083;-78
2023/06/05 07:47:46;;;;;;;6.50;2.70;;;;;;;;;;5107019;27;20050;-78
2023/06/05 07:50:12;;;;;;;6.38;2.83;;;;;;;;;;5107665;27;20043;-78
2023/06/05 07:52:39;;;;;;;5.78;3.00;;;;;;;;;;5125379;27;20035;-79
2023/06/05 07:55:06;;;;;;;5.65;3.30;;;;;;;;;;5107504;27;20114;-79
2023/06/05 07:57:33;;;;;;;5.60;2.88;;;;;;;;;;5101878;27;20054;-78
2023/06/05 07:59:59;;;;;;;6.35;2.65;;;;;;;;;;5102920;27;20632;-78
2023/06/05 08:02:25;;;;;;;6.50;3.10;;;;;;;;;;5103237;27;20382;-78
2023/06/05 08:04:51;;;;;;;6.18;3.08;;;;;;;;;;5112866;27;20043;-78
2023/06/05 08:07:17;;;;;;;5.55;2.63;;;;;;;;;;5089549;27;20043;-78
2023/06/05 08:09:44;;;;;;;5.68;2.92;;;;;;;;;;5102674;27;20042;-78
2023/06/05 08:12:10;;;;;;;6.57;3.90;;;;;;;;;;5119700;27;20111;-78
2023/06/05 08:14:37;;;;;;;7.03;3.08;;;;;;;;;;5123298;27;20342;-78
2023/06/05 08:17:04;;;;;;;6.43;3.00;;;;;;;;;;5105097;27;20043;-78
2023/06/05 08:19:30;;;;;;;5.90;2.88;;;;;;;;;;5107263;27;20035;-78
2023/06/05 08:21:57;;;;;;;3.78;2.30;;;;;;;;;;5136834;27;20241;-79
2023/06/05 08:24:24;;;;;;;5.32;2.70;;;;;;;;;;5116372;27;20124;-78
2023/06/05 08:26:50;;;;;;;6.75;3.40;;;;;;;;;;5108321;27;20059;-78
2023/06/05 08:29:16;;;;;;;5.20;2.90;;;;;;;;;;5105067;27;20043;-79
2023/06/05 08:31:42;;;;;;;5.13;2.58;;;;;;;;;;5099324;27;20477;-74
2023/06/05 08:34:09;;;;;;;6.65;4.03;;;;;;;;;;5113636;27;20078;-78
2023/06/05 08:36:35;;;;;;;7.93;3.55;;;;;;;;;;5124824;27;20063;-79
2023/06/05 08:39:02;;;;;;;6.07;2.95;;;;;;;;;;5114152;27;20135;-78
2023/06/05 08:41:30;;;;;;;7.18;3.40;;;;;;;;;;5093919;27;20115;-78
2023/06/05 08:43:57;;;;;;;5.78;3.28;;;;;;;;;;5105048;27;20125;-78
2023/06/05 08:46:25;;;;;;;5.28;2.75;;;;;;;;;;5105104;27;20047;-78
2023/06/05 08:48:53;;;;;;;5.20;2.63;;;;;;;;;;5139345;27;20142;-82
2023/06/05 08:51:19;;;;;;;6.65;2.80;;;;;;;;;;5141820;27;20055;-78
2023/06/05 08:53:50;;;;;;;7.30;3.10;;;;;;;;;;5103156;27;20058;-79
2023/06/05 08:56:16;;;;;;;6.03;3.30;;;;;;;;;;5132504;27;20043;-78
2023/06/05 08:58:44;;;;;;;9.48;4.25;;;;;;;;;;5107557;27;20050;-78
2023/06/05 09:01:11;;;;;;;7.90;4.90;;;;;;;;;;5129306;27;20061;-78
2023/06/05 09:03:37;;;;;;;5.75;4.15;;;;;;;;;;5109692;27;20050;-79
2023/06/05 09:06:04;;;;;;;5.68;3.47;;;;;;;;;;5105412;27;20047;-78
2023/06/05 09:08:32;;;;;;;6.75;3.65;;;;;;;;;;5121453;27;20511;-78
2023/06/05 09:11:19;;;;;;;6.05;3.42;;;;;;;;;;5102275;27;20142;-78
2023/06/05 09:13:46;;;;;;;5.45;3.45;;;;;;;;;;5100363;27;20039;-79
2023/06/05 09:16:12;;;;;;;8.05;3.55;;;;;;;;;;5134666;27;20051;-78
2023/06/05 09:18:52;;;;;;;5.65;3.20;;;;;;;;;;5136588;27;20066;-79
2023/06/05 09:21:18;;;;;;;6.40;3.38;;;;;;;;;;5104884;27;20420;-79
2023/06/05 09:23:44;;;;;;;8.07;4.10;;;;;;;;;;5107299;27;20041;-79
2023/06/05 09:26:13;;;;;;;6.80;3.90;;;;;;;;;;5101403;27;20054;-79
2023/06/05 09:28:54;;;;;;;5.07;3.10;;;;;;;;;;5123856;27;20134;-79
2023/06/05 09:31:21;;;;;;;4.70;2.92;;;;;;;;;;5122861;27;20127;-79
2023/06/05 09:33:55;;;;;;;5.57;3.30;;;;;;;;;;5106118;27;20034;-78
2023/06/05 09:36:21;;;;;;;5.57;3.60;;;;;;;;;;5123593;27;20050;-79
2023/06/05 09:38:50;;;;;;;5.18;3.40;;;;;;;;;;5124105;27;20472;-79
2023/06/05 09:41:18;;;;;;;5.70;3.47;;;;;;;;;;5089979;27;20485;-79
2023/06/05 09:43:45;;;;;;;5.30;3.30;;;;;;;;;;5105167;27;20047;-78
2023/06/05 09:46:12;;;;;;;5.22;3.22;;;;;;;;;;5108774;27;20049;-78
2023/06/05 09:48:39;;;;;;;5.05;3.28;;;;;;;;;;5126171;27;20046;-79
2023/06/05 09:51:13;;;;;;;5.78;3.30;;;;;;;;;;5106446;27;20039;-78
2023/06/05 09:53:42;;;;;;;5.15;3.10;;;;;;;;;;5104047;27;20146;-74
2023/06/05 09:56:12;;;;;;;4.90;2.95;;;;;;;;;;5100469;27;20074;-73
2023/06/05 09:58:38;;;;;;;5.13;3.13;;;;;;;;;;5122470;27;20054;-73
2023/06/05 10:01:07;;;;;;;5.90;3.20;;;;;;;;;;5120906;27;20036;-74
2023/06/05 10:03:34;;;;;;;4.90;2.70;;;;;;;;;;5101190;27;20111;-73
2023/06/05 10:06:00;;;;;;;3.90;2.40;;;;;;;;;;5118465;27;20095;-74
2023/06/05 10:08:27;;;;;;;5.07;2.83;;;;;;;;;;5119524;27;20049;-73
2023/06/05 10:10:53;;;;;;;5.78;3.17;;;;;;;;;;5104703;27;20146;-74
2023/06/05 10:13:20;;;;;;;4.95;2.83;;;;;;;;;;5100714;27;20042;-74
2023/06/05 10:15:46;;;;;;;4.30;2.50;;;;;;;;;;5086220;27;20129;-78
2023/06/05 10:18:13;;;;;;;4.43;2.47;;;;;;;;;;5131619;27;20050;-78
2023/06/05 10:20:39;;;;;;;4.20;2.30;;;;;;;;;;5100000;27;20078;-70
2023/06/05 10:23:06;;;;;;;6.07;2.90;;;;;;;;;;5118245;27;20062;-79
2023/06/05 10:25:33;;;;;;;4.30;2.38;;;;;;;;;;5099779;27;20154;-79
2023/06/05 10:28:13;;;;;;;4.65;2.70;;;;;;;;;;5099004;27;20192;-80
2023/06/05 10:30:46;;;;;;;4.40;2.60;;;;;;;;;;5095480;28;20051;-79
2023/06/05 10:33:12;;;;;;;4.47;2.20;;;;;;;;;;5101915;28;20043;-79
2023/06/05 10:35:38;;;;;;;4.50;2.47;;;;;;;;;;5099123;27;20102;-79
2023/06/05 10:38:16;;;;;;;4.55;2.67;;;;;;;;;;5080868;28;20074;-79
2023/06/05 10:40:43;;;;;;;4.20;2.83;;;;;;;;;;5102423;28;20056;-79
2023/06/05 10:43:28;;;;;;;5.72;2.55;;;;;;;;;;5101875;28;20044;-80
2023/06/05 10:45:54;;;;;;;5.07;2.70;;;;;;;;;;5100037;28;20039;-79
2023/06/05 10:48:20;;;;;;;4.60;2.45;;;;;;;;;;5098315;27;20059;-79
2023/06/05 10:50:47;;;;;;;4.13;2.60;;;;;;;;;;5103149;28;20055;-79
2023/06/05 10:53:37;;;;;;;5.05;3.20;;;;;;;;;;5101410;28;20048;-79
2023/06/05 10:56:03;;;;;;;5.63;2.50;;;;;;;;;;5115832;27;20131;-79
2023/06/05 10:58:29;;;;;;;5.10;2.65;;;;;;;;;;5104757;28;20044;-79
2023/06/05 11:01:18;;;;;;;4.72;3.10;;;;;;;;;;5097933;28;21673;-79
2023/06/05 11:03:56;;;;;;;4.50;3.15;;;;;;;;;;5097590;28;20521;-79
2023/06/05 11:06:23;;;;;;;5.55;2.85;;;;;;;;;;5095282;28;20130;-79
2023/06/05 11:09:09;;;;;;;6.93;3.88;;;;;;;;;;5101292;28;20099;-79
2023/06/05 11:11:55;;;;;;;5.93;3.28;;;;;;;;;;5100125;28;20052;-79
2023/06/05 11:14:21;;;;;;;5.45;3.50;;;;;;;;;;5132914;27;20052;-79
2023/06/05 11:16:48;;;;;;;4.43;3.00;;;;;;;;;;5102246;28;20118;-79
2023/06/05 11:19:21;;;;;;;5.97;3.72;;;;;;;;;;5104204;28;20036;-79
2023/06/05 11:21:59;;;;;;;4.75;3.30;;;;;;;;;;5137769;27;20055;-79
2023/06/05 11:24:26;;;;;;;5.88;3.50;;;;;;;;;;5097995;28;20044;-79
2023/06/05 11:26:52;;;;;;;5.03;3.10;;;;;;;;;;5095186;28;20529;-79
2023/06/05 11:29:18;;;;;;;6.28;3.00;;;;;;;;;;5098102;28;20048;-79
2023/06/05 11:31:45;;;;;;;4.88;2.95;;;;;;;;;;5104210;28;20044;-67
2023/06/05 11:34:13;;;;;;;4.97;2.47;;;;;;;;;;5132941;27;20054;-73
2023/06/05 11:36:39;;;;;;;6.47;3.53;;;;;;;;;;5102838;28;20062;-73
2023/06/05 11:39:06;;;;;;;3.72;2.60;;;;;;;;;;5099770;28;20039;-73
2023/06/05 11:41:32;;;;;;;3.72;2.20;;;;;;;;;;5100593;28;20403;-73
2023/06/05 11:43:58;;;;;;;5.07;2.78;;;;;;;;;;5102766;28;20557;-73
2023/06/05 11:46:38;;;;;;;4.30;2.90;;;;;;;;;;5103694;28;20043;-73
2023/06/05 11:49:04;;;;;;;4.28;2.60;;;;;;;;;;5104563;28;20422;-71
2023/06/05 11:51:34;;;;;;;4.00;2.80;;;;;;;;;;5102971;28;20070;-74
2023/06/05 11:54:02;;;;;;;4.10;2.80;;;;;;;;;;5102558;28;20532;-76
2023/06/05 11:56:29;;;;;;;5.15;3.00;;;;;;;;;;5098867;28;20118;-76
2023/06/05 11:58:55;;;;;;;4.57;3.13;;;;;;;;;;5100786;28;21151;-76
2023/06/05 12:01:21;;;;;;;4.47;2.78;;;;;;;;;;5101333;28;20506;-76
2023/06/05 12:03:49;;;;;;;3.97;2.25;;;;;;;;;;5097146;28;20134;-76
2023/06/05 12:06:16;;;;;;;6.03;3.53;;;;;;;;;;5099213;28;20155;-77
2023/06/05 12:08:42;;;;;;;4.82;3.17;;;;;;;;;;5084758;28;20747;-76
2023/06/05 12:11:23;;;;;;;9.02;3.40;;;;;;;;;;5101097;28;20494;-77
2023/06/05 12:13:51;;;;;;;5.55;3.50;;;;;;;;;;5103052;28;20132;-76
2023/06/05 12:16:17;;;;;;;6.40;3.72;;;;;;;;;;5103178;28;20059;-77
2023/06/05 12:18:45;;;;;;;5.85;4.07;;;;;;;;;;5140459;27;20042;-76
2023/06/05 12:21:22;;;;;;;7.10;4.72;;;;;;;;;;5105637;27;20054;-76
2023/06/05 12:23:49;;;;;;;5.60;4.32;;;;;;;;;;5103718;27;20094;-76
2023/06/05 12:26:15;;;;;;;5.78;4.20;;;;;;;;;;5108984;27;20046;-76
2023/06/05 12:28:43;;;;;;;7.85;4.90;;;;;;;;;;5113073;27;20414;-76
2023/06/05 12:31:10;;;;;;;6.93;4.85;;;;;;;;;;5107349;27;20178;-76
2023/06/05 12:33:50;;;;;;;6.53;5.03;;;;;;;;;;5110887;27;20050;-76
2023/06/05 12:36:16;;;;;;;6.35;4.60;;;;;;;;;;5108138;27;20039;-76
2023/06/05 12:38:43;;;;;;;7.63;4.65;;;;;;;;;;5104461;27;20383;-76
2023/06/05 12:41:09;;;;;;;6.88;4.90;;;;;;;;;;5106429;27;20343;-77
2023/06/05 12:43:35;;;;;;;7.85;5.00;;;;;;;;;;5088285;27;20044;-76
2023/06/05 12:46:02;;;;;;;7.63;5.05;;;;;;;;;;5102841;27;20131;-76
2023/06/05 12:48:28;;;;;;;8.52;4.88;;;;;;;;;;5105303;27;20046;-77
2023/06/05 12:50:56;;;;;;;6.82;5.10;;;;;;;;;;5107161;27;20039;-76
2023/06/05 12:53:22;;;;;;;7.15;5.20;;;;;;;;;;5105562;27;20054;-68
2023/06/05 12:55:48;;;;;;;9.82;5.30;;;;;;;;;;5141125;27;20065;-71
2023/06/05 12:58:15;;;;;;;6.88;4.80;;;;;;;;;;5110568;27;20381;-71
2023/06/05 13:00:41;;;;;;;8.68;5.10;;;;;;;;;;5106566;27;20067;-70
2023/06/05 13:03:09;;;;;;;9.10;5.68;;;;;;;;;;5145422;27;20050;-71
2023/06/05 13:05:35;;;;;;;7.55;5.78;;;;;;;;;;5107532;27;20118;-71
2023/06/05 13:08:02;;;;;;;7.75;6.20;;;;;;;;;;5107741;27;20448;-71
2023/06/05 13:10:29;;;;;;;6.97;5.53;;;;;;;;;;5105935;27;20069;-70
2023/06/05 13:12:55;;;;;;;7.57;5.38;;;;;;;;;;5103710;27;20058;-71
2023/06/05 13:15:21;;;;;;;7.93;5.28;;;;;;;;;;5136922;27;20069;-71
2023/06/05 13:17:49;;;;;;;8.23;5.05;;;;;;;;;;5108541;27;20170;-71
2023/06/05 13:20:15;;;;;;;7.35;5.68;;;;;;;;;;5104609;27;20047;-71
2023/06/05 13:22:42;;;;;;;7.35;5.47;;;;;;;;;;5103028;27;20070;-71
2023/06/05 13:25:08;;;;;;;6.53;4.72;;;;;;;;;;5133331;27;20048;-71
2023/06/05 13:27:35;;;;;;;7.28;4.88;;;;;;;;;;5107628;27;20039;-71
2023/06/05 13:30:03;;;;;;;6.70;5.30;;;;;;;;;;5113237;27;20054;-70
2023/06/05 13:32:31;;;;;;;6.90;4.53;;;;;;;;;;5132292;27;20065;-71
2023/06/05 13:34:57;;;;;;;6.35;4.57;;;;;;;;;;5124601;27;20035;-71
2023/06/05 13:37:23;;;;;;;5.93;4.43;;;;;;;;;;5123997;27;20505;-68
2023/06/05 13:39:50;;;;;;;7.55;5.32;;;;;;;;;;5125521;27;20061;-69
2023/06/05 13:42:16;;;;;;;8.40;5.47;;;;;;;;;;5107625;27;20145;-68
2023/06/05 13:44:42;;;;;;;8.23;4.80;;;;;;;;;;5113363;27;20062;-67
2023/06/05 13:47:09;;;;;;;8.93;5.45;;;;;;;;;;5126765;27;20113;-67
2023/06/05 13:49:35;;;;;;;8.38;5.22;;;;;;;;;;5112504;27;20051;-67
2023/06/05 13:52:01;;;;;;;6.68;4.93;;;;;;;;;;5095593;27;20621;-68
2023/06/05 13:54:27;;;;;;;5.60;4.53;;;;;;;;;;5109497;27;20072;-69
2023/06/05 13:56:54;;;;;;;6.15;4.90;;;;;;;;;;5108952;27;20370;-71
2023/06/05 13:59:20;;;;;;;6.43;4.95;;;;;;;;;;5108632;27;20035;-71
2023/06/05 14:01:46;;;;;;;6.60;4.90;;;;;;;;;;5138577;27;20125;-72
2023/06/05 14:04:12;;;;;;;6.30;4.32;;;;;;;;;;5108812;27;20035;-70
2023/06/05 14:06:39;;;;;;;6.43;4.85;;;;;;;;;;5131240;27;20039;-76
2023/06/05 14:09:06;;;;;;;6.13;4.70;;;;;;;;;;5127062;27;20131;-75
2023/06/05 14:11:32;;;;;;;6.50;4.93;;;;;;;;;;5120790;27;20442;-76
2023/06/05 14:13:59;;;;;;;6.95;4.22;;;;;;;;;;5110026;27;20081;-75
2023/06/05 14:16:25;;;;;;;7.07;5.10;;;;;;;;;;5135377;27;20066;-75
2023/06/05 14:18:52;;;;;;;8.35;4.80;;;;;;;;;;5124467;27;20047;-74
2023/06/05 14:21:18;;;;;;;6.95;4.60;;;;;;;;;;5106495;27;20043;-75
2023/06/05 14:23:44;;;;;;;6.45;4.40;;;;;;;;;;5106533;27;20047;-75
2023/06/05 14:26:10;;;;;;;7.28;4.70;;;;;;;;;;5128404;27;20065;-76
2023/06/05 14:28:37;;;;;;;8.23;5.20;;;;;;;;;;5132664;27;20055;-75
2023/06/05 14:31:03;;;;;;;7.53;4.82;;;;;;;;;;5110628;27;20120;-72
2023/06/05 14:33:29;;;;;;;8.65;4.47;;;;;;;;;;5097094;27;20042;-72
2023/06/05 14:35:55;;;;;;;6.28;5.00;;;;;;;;;;5112684;27;20043;-72
2023/06/05 14:38:22;;;;;;;7.30;4.93;;;;;;;;;;5129118;27;20743;-73
2023/06/05 14:40:50;;;;;;;9.00;5.18;;;;;;;;;;5123828;27;20043;-73
2023/06/05 14:43:16;;;;;;;7.40;4.55;;;;;;;;;;5107398;27;20047;-72
2023/06/05 14:45:43;;;;;;;6.63;4.13;;;;;;;;;;5124014;27;20047;-72